createdAt,value
2018-04-12T00:00:56.187Z,9.10
2018-04-12T00:01:56.108Z,9.03
2018-04-12T00:02:56.035Z,8.98
2018-04-12T00:03:55.992Z,8.98
2018-04-12T00:04:55.879Z,8.80
2018-04-12T00:05:55.800Z,8.91
2018-04-12T00:06:55.725Z,9.00
2018-04-12T00:07:56.453Z,8.95
2018-04-12T00:08:55.571Z,9.02
2018-04-12T00:09:55.494Z,8.93
2018-04-12T00:10:55.417Z,8.84
2018-04-12T00:11:55.339Z,8.91
2018-04-12T00:12:55.264Z,8.82
2018-04-12T00:13:55.186Z,8.87
2018-04-12T00:14:55.110Z,8.85
2018-04-12T00:15:55.033Z,8.80
2018-04-12T00:16:54.957Z,8.85
2018-04-12T00:17:54.878Z,8.90
2018-04-12T00:18:54.802Z,8.85
2018-04-12T00:19:54.725Z,8.90
2018-04-12T00:20:54.648Z,8.91
2018-04-12T00:21:54.571Z,8.90
2018-04-12T00:22:54.494Z,8.98
2018-04-12T00:23:54.419Z,9.02
2018-04-12T00:24:54.340Z,9.05
2018-04-12T00:25:54.262Z,9.06
2018-04-12T00:26:54.190Z,8.98
2018-04-12T00:27:54.110Z,9.00
2018-04-12T00:28:54.033Z,8.98
2018-04-12T00:29:53.956Z,9.02
2018-04-12T00:30:53.878Z,8.95
2018-04-12T00:31:53.801Z,8.91
2018-04-12T00:32:53.725Z,8.91
2018-04-12T00:33:53.647Z,8.93
2018-04-12T00:34:53.569Z,8.84
2018-04-12T00:35:53.492Z,8.95
2018-04-12T00:36:53.418Z,8.95
2018-04-12T00:37:53.339Z,9.00
2018-04-12T00:38:53.310Z,8.98
2018-04-12T00:39:53.186Z,8.94
2018-04-12T00:40:53.116Z,8.94
2018-04-12T00:41:53.032Z,8.94
2018-04-12T00:42:52.967Z,8.95
2018-04-12T00:43:52.878Z,8.94
2018-04-12T00:44:52.805Z,8.94
2018-04-12T00:45:52.724Z,9.03
2018-04-12T00:46:52.648Z,9.06
2018-04-12T00:47:52.570Z,9.03
2018-04-12T00:48:52.496Z,8.94
2018-04-12T00:49:52.417Z,8.95
2018-04-12T00:50:52.341Z,8.97
2018-04-12T00:51:52.263Z,8.98
2018-04-12T00:52:52.192Z,8.97
2018-04-12T00:53:52.109Z,9.02
2018-04-12T00:54:52.038Z,9.03
2018-04-12T00:55:51.955Z,9.02
2018-04-12T00:56:51.893Z,9.13
2018-04-12T00:57:51.802Z,9.16
2018-04-12T00:58:51.726Z,9.19
2018-04-12T00:59:51.649Z,9.24
2018-04-12T01:00:51.573Z,9.29
2018-04-12T01:01:51.497Z,9.28
2018-04-12T01:02:51.418Z,9.20
2018-04-12T01:03:51.343Z,9.13
2018-04-12T01:04:51.266Z,9.22
2018-04-12T01:05:51.190Z,9.27
2018-04-12T01:06:51.113Z,9.20
2018-04-12T01:07:51.036Z,9.22
2018-04-12T01:08:50.960Z,9.28
2018-04-12T01:09:50.883Z,9.25
2018-04-12T01:10:50.807Z,9.38
2018-04-12T01:11:50.731Z,9.40
2018-04-12T01:12:50.653Z,9.42
2018-04-12T01:13:50.577Z,9.38
2018-04-12T01:14:50.503Z,9.38
2018-04-12T01:15:50.423Z,9.47
2018-04-12T01:16:50.349Z,9.38
2018-04-12T01:17:50.270Z,9.43
2018-04-12T01:18:50.193Z,9.38
2018-04-12T01:19:50.122Z,9.47
2018-04-12T01:20:50.042Z,9.42
2018-04-12T01:21:49.965Z,9.40
2018-04-12T01:22:49.888Z,9.50
2018-04-12T01:23:49.815Z,9.50
2018-04-12T01:24:49.735Z,9.38
2018-04-12T01:25:49.657Z,9.52
2018-04-12T01:26:49.582Z,9.38
2018-04-12T01:27:49.506Z,9.45
2018-04-12T01:28:49.431Z,9.53
2018-04-12T01:29:49.352Z,9.52
2018-04-12T01:30:49.280Z,9.53
2018-04-12T01:31:49.199Z,9.58
2018-04-12T01:32:49.123Z,9.63
2018-04-12T01:33:49.046Z,9.63
2018-04-12T01:34:48.969Z,9.58
2018-04-12T01:35:48.899Z,9.60
2018-04-12T01:36:48.818Z,9.58
2018-04-12T01:37:48.739Z,9.53
2018-04-12T01:38:48.666Z,9.64
2018-04-12T01:39:48.588Z,9.50
2018-04-12T01:40:48.511Z,9.63
2018-04-12T01:41:48.433Z,9.56
2018-04-12T01:42:48.356Z,9.52
2018-04-12T01:43:48.283Z,9.46
2018-04-12T01:44:48.205Z,9.45
2018-04-12T01:45:48.127Z,9.40
2018-04-12T01:46:48.053Z,9.45
2018-04-12T01:47:47.974Z,9.40
2018-04-12T01:48:47.899Z,9.43
2018-04-12T01:49:47.822Z,9.37
2018-04-12T01:50:47.746Z,9.43
2018-04-12T01:51:47.970Z,9.37
2018-04-12T01:52:47.594Z,9.43
2018-04-12T01:53:47.516Z,9.46
2018-04-12T01:54:47.440Z,9.42
2018-04-12T01:55:47.364Z,9.38
2018-04-12T01:56:47.438Z,9.32
2018-04-12T01:57:47.210Z,9.29
2018-04-12T01:58:47.134Z,9.31
2018-04-12T01:59:47.057Z,9.31
2018-04-12T02:00:46.984Z,9.35
2018-04-12T02:01:46.904Z,9.28
2018-04-12T02:02:46.828Z,9.34
2018-04-12T02:03:46.756Z,9.22
2018-04-12T02:04:46.674Z,9.34
2018-04-12T02:05:46.597Z,9.34
2018-04-12T02:06:46.521Z,9.32
2018-04-12T02:07:46.448Z,9.37
2018-04-12T02:08:46.370Z,9.37
2018-04-12T02:09:46.292Z,9.40
2018-04-12T02:10:46.217Z,9.45
2018-04-12T02:11:46.140Z,9.43
2018-04-12T02:12:46.064Z,9.42
2018-04-12T02:13:45.987Z,9.40
2018-04-12T02:14:45.910Z,9.47
2018-04-12T02:15:45.834Z,9.47
2018-04-12T02:16:45.759Z,9.53
2018-04-12T02:17:45.682Z,9.49
2018-04-12T02:18:45.604Z,9.45
2018-04-12T02:19:45.528Z,9.43
2018-04-12T02:20:45.451Z,9.46
2018-04-12T02:21:45.374Z,9.42
2018-04-12T02:22:45.301Z,9.52
2018-04-12T02:23:45.222Z,9.45
2018-04-12T02:24:45.146Z,9.61
2018-04-12T02:25:45.118Z,9.56
2018-04-12T02:26:44.993Z,9.49
2018-04-12T02:27:44.916Z,9.45
2018-04-12T02:28:44.844Z,9.50
2018-04-12T02:29:44.763Z,9.46
2018-04-12T02:30:44.687Z,9.38
2018-04-12T02:31:44.623Z,9.45
2018-04-12T02:32:44.534Z,9.40
2018-04-12T02:33:44.459Z,9.45
2018-04-12T02:34:44.381Z,9.38
2018-04-12T02:35:44.305Z,9.37
2018-04-12T02:36:44.228Z,9.40
2018-04-12T02:37:44.151Z,9.42
2018-04-12T02:38:44.082Z,9.47
2018-04-12T02:39:44.008Z,9.52
2018-04-12T02:40:43.924Z,9.47
2018-04-12T02:41:43.846Z,9.52
2018-04-12T02:42:43.770Z,9.52
2018-04-12T02:43:43.696Z,9.47
2018-04-12T02:44:43.618Z,9.42
2018-04-12T02:45:43.542Z,9.50
2018-04-12T02:46:43.467Z,9.45
2018-04-12T02:47:43.388Z,9.46
2018-04-12T02:48:43.312Z,9.47
2018-04-12T02:49:43.235Z,9.46
2018-04-12T02:50:43.173Z,9.47
2018-04-12T02:51:43.083Z,9.53
2018-04-12T02:52:43.007Z,9.58
2018-04-12T02:53:42.933Z,9.58
2018-04-12T02:54:42.854Z,9.61
2018-04-12T02:55:42.778Z,9.58
2018-04-12T02:56:42.701Z,9.56
2018-04-12T02:57:42.623Z,9.61
2018-04-12T02:58:42.548Z,9.56
2018-04-12T02:59:42.472Z,9.56
2018-04-12T03:00:42.397Z,9.64
2018-04-12T03:01:42.320Z,9.65
2018-04-12T03:02:42.243Z,9.60
2018-04-12T03:03:42.167Z,9.60
2018-04-12T03:04:42.090Z,9.55
2018-04-12T03:05:42.014Z,9.55
2018-04-12T03:06:41.937Z,9.61
2018-04-12T03:07:41.862Z,9.56
2018-04-12T03:08:41.786Z,9.58
2018-04-12T03:09:41.708Z,9.55
2018-04-12T03:10:41.633Z,9.68
2018-04-12T03:11:41.557Z,9.75
2018-04-12T03:12:41.480Z,9.70
2018-04-12T03:13:41.403Z,9.70
2018-04-12T03:14:41.327Z,9.74
2018-04-12T03:15:41.251Z,9.78
2018-04-12T03:16:41.174Z,9.72
2018-04-12T03:17:41.098Z,9.65
2018-04-12T03:18:41.023Z,9.60
2018-04-12T03:19:40.946Z,9.58
2018-04-12T03:20:40.870Z,9.58
2018-04-12T03:21:40.793Z,9.58
2018-04-12T03:22:40.717Z,9.56
2018-04-12T03:23:40.641Z,9.63
2018-04-12T03:24:40.565Z,9.64
2018-04-12T03:25:40.487Z,9.60
2018-04-12T03:26:40.413Z,9.58
2018-04-12T03:27:40.336Z,9.56
2018-04-12T03:28:40.260Z,9.55
2018-04-12T03:29:40.186Z,9.52
2018-04-12T03:30:40.107Z,9.52
2018-04-12T03:31:40.031Z,9.46
2018-04-12T03:32:39.954Z,9.47
2018-04-12T03:33:39.878Z,9.52
2018-04-12T03:34:39.803Z,9.49
2018-04-12T03:35:39.875Z,9.47
2018-04-12T03:36:39.649Z,9.47
2018-04-12T03:37:39.573Z,9.42
2018-04-12T03:38:39.499Z,9.42
2018-04-12T03:39:39.475Z,9.43
2018-04-12T03:40:39.344Z,9.43
2018-04-12T03:41:39.267Z,9.43
2018-04-12T03:42:39.191Z,9.46
2018-04-12T03:43:39.122Z,9.42
2018-04-12T03:44:39.038Z,9.37
2018-04-12T03:45:38.962Z,9.31
2018-04-12T03:46:38.886Z,9.32
2018-04-12T03:47:38.812Z,9.34
2018-04-12T03:48:38.812Z,9.27
2018-04-12T03:49:38.707Z,9.31
2018-04-12T03:50:38.603Z,9.22
2018-04-12T03:51:38.518Z,9.32
2018-04-12T03:52:38.430Z,9.14
2018-04-12T03:53:38.349Z,9.17
2018-04-12T03:54:38.273Z,9.06
2018-04-12T03:55:38.198Z,8.98
2018-04-12T03:56:38.122Z,8.93
2018-04-12T03:57:38.043Z,8.95
2018-04-12T03:58:37.966Z,8.95
2018-04-12T03:59:37.891Z,8.80
2018-04-12T04:00:37.813Z,8.90
2018-04-12T04:01:37.737Z,8.80
2018-04-12T04:02:37.660Z,8.69
2018-04-12T04:03:37.583Z,8.66
2018-04-12T04:04:37.508Z,8.65
2018-04-12T04:05:37.430Z,8.80
2018-04-12T04:06:37.353Z,8.88
2018-04-12T04:07:37.276Z,8.88
2018-04-12T04:08:37.199Z,8.80
2018-04-12T04:09:37.123Z,8.79
2018-04-12T04:10:37.045Z,8.77
2018-04-12T04:11:36.969Z,8.84
2018-04-12T04:12:36.891Z,8.84
2018-04-12T04:13:36.814Z,8.72
2018-04-12T04:14:36.736Z,8.76
2018-04-12T04:15:36.661Z,8.85
2018-04-12T04:16:36.583Z,8.76
2018-04-12T04:17:36.506Z,8.72
2018-04-12T04:18:36.429Z,8.80
2018-04-12T04:19:36.353Z,8.85
2018-04-12T04:20:36.276Z,8.93
2018-04-12T04:21:36.198Z,8.87
2018-04-12T04:22:36.121Z,9.06
2018-04-12T04:23:36.045Z,9.00
2018-04-12T04:24:35.969Z,9.09
2018-04-12T04:25:35.890Z,9.14
2018-04-12T04:26:35.814Z,9.17
2018-04-12T04:27:35.739Z,9.16
2018-04-12T04:28:35.661Z,9.19
2018-04-12T04:29:35.583Z,9.25
2018-04-12T04:30:35.507Z,9.29
2018-04-12T04:31:35.430Z,9.19
2018-04-12T04:32:35.354Z,9.16
2018-04-12T04:33:35.277Z,9.25
2018-04-12T04:34:35.199Z,9.20
2018-04-12T04:35:35.124Z,9.25
2018-04-12T04:36:35.046Z,9.24
2018-04-12T04:37:34.969Z,9.20
2018-04-12T04:38:34.897Z,9.13
2018-04-12T04:39:34.816Z,9.24
2018-04-12T04:40:34.740Z,9.29
2018-04-12T04:41:34.669Z,9.19
2018-04-12T04:42:34.607Z,9.35
2018-04-12T04:43:34.509Z,9.25
2018-04-12T04:44:34.433Z,9.25
2018-04-12T04:45:34.356Z,9.32
2018-04-12T04:46:34.279Z,9.38
2018-04-12T04:47:34.202Z,9.34
2018-04-12T04:48:34.126Z,9.43
2018-04-12T04:49:34.048Z,9.42
2018-04-12T04:50:33.971Z,9.42
2018-04-12T04:51:33.895Z,9.38
2018-04-12T04:52:33.819Z,9.61
2018-04-12T04:53:33.746Z,9.61
2018-04-12T04:54:33.665Z,9.58
2018-04-12T04:55:33.587Z,9.74
2018-04-12T04:56:33.512Z,9.72
2018-04-12T04:57:33.435Z,9.75
2018-04-12T04:58:33.358Z,9.75
2018-04-12T04:59:33.280Z,9.65
2018-04-12T05:00:33.206Z,9.60
2018-04-12T05:01:33.128Z,9.58
2018-04-12T05:02:33.051Z,9.55
2018-04-12T05:03:32.975Z,9.60
2018-04-12T05:04:32.899Z,9.61
2018-04-12T05:05:32.827Z,9.63
2018-04-12T05:06:32.745Z,9.60
2018-04-12T05:07:32.669Z,9.56
2018-04-12T05:08:32.592Z,9.64
2018-04-12T05:09:32.516Z,9.56
2018-04-12T05:10:32.439Z,9.67
2018-04-12T05:11:32.361Z,9.67
2018-04-12T05:12:32.286Z,9.70
2018-04-12T05:13:32.209Z,9.72
2018-04-12T05:14:32.132Z,9.68
2018-04-12T05:15:32.183Z,9.79
2018-04-12T05:16:31.980Z,9.70
2018-04-12T05:17:31.904Z,9.64
2018-04-12T05:18:31.827Z,9.82
2018-04-12T05:19:31.750Z,9.79
2018-04-12T05:20:31.678Z,9.68
2018-04-12T05:21:31.599Z,9.75
2018-04-12T05:22:31.518Z,9.85
2018-04-12T05:23:31.444Z,9.75
2018-04-12T05:24:31.369Z,9.89
2018-04-12T05:25:31.290Z,9.82
2018-04-12T05:26:31.214Z,9.80
2018-04-12T05:27:31.138Z,9.79
2018-04-12T05:28:31.062Z,9.82
2018-04-12T05:29:30.984Z,9.83
2018-04-12T05:30:30.908Z,9.85
2018-04-12T05:31:30.834Z,9.80
2018-04-12T05:32:30.756Z,9.82
2018-04-12T05:33:30.679Z,9.92
2018-04-12T05:34:30.604Z,9.93
2018-04-12T05:35:30.531Z,10.03
2018-04-12T05:36:30.452Z,10.00
2018-04-12T05:37:30.377Z,9.83
2018-04-12T05:38:30.298Z,9.96
2018-04-12T05:39:30.224Z,9.89
2018-04-12T05:40:30.148Z,10.01
2018-04-12T05:41:30.070Z,10.04
2018-04-12T05:42:29.994Z,10.11
2018-04-12T05:43:29.918Z,10.15
2018-04-12T05:44:29.842Z,10.23
2018-04-12T05:45:29.766Z,10.34
2018-04-12T05:46:29.690Z,10.37
2018-04-12T05:47:29.614Z,10.59
2018-04-12T05:48:29.539Z,10.66
2018-04-12T05:49:29.464Z,10.63
2018-04-12T05:50:29.387Z,10.66
2018-04-12T05:51:29.315Z,10.73
2018-04-12T05:52:29.235Z,10.66
2018-04-12T05:53:29.157Z,10.74
2018-04-12T05:54:29.082Z,10.81
2018-04-12T05:55:29.007Z,10.96
2018-04-12T05:56:28.929Z,11.00
2018-04-12T05:57:28.854Z,11.14
2018-04-12T05:58:28.778Z,11.14
2018-04-12T05:59:28.704Z,11.29
2018-04-12T06:00:28.627Z,11.29
2018-04-12T06:01:28.554Z,11.17
2018-04-12T06:02:28.475Z,11.24
2018-04-12T06:03:28.401Z,11.35
2018-04-12T06:04:28.329Z,11.31
2018-04-12T06:05:28.248Z,11.34
2018-04-12T06:06:28.179Z,11.59
2018-04-12T06:07:28.098Z,11.65
2018-04-12T06:08:28.024Z,11.75
2018-04-12T06:09:27.948Z,11.86
2018-04-12T06:10:27.875Z,11.97
2018-04-12T06:11:27.797Z,11.98
2018-04-12T06:12:27.722Z,12.12
2018-04-12T06:13:27.653Z,12.13
2018-04-12T06:14:27.572Z,12.27
2018-04-12T06:15:27.527Z,12.51
2018-04-12T06:16:27.422Z,12.63
2018-04-12T06:17:27.347Z,12.82
2018-04-12T06:18:27.272Z,12.91
2018-04-12T06:19:27.197Z,12.99
2018-04-12T06:20:27.128Z,13.14
2018-04-12T06:21:27.048Z,13.21
2018-04-12T06:22:26.972Z,13.38
2018-04-12T06:23:26.897Z,13.50
2018-04-12T06:24:26.824Z,13.59
2018-04-12T06:25:26.749Z,13.63
2018-04-12T06:26:26.679Z,13.70
2018-04-12T06:27:26.601Z,13.87
2018-04-12T06:28:26.532Z,13.84
2018-04-12T06:29:26.452Z,13.96
2018-04-12T06:30:26.379Z,13.98
2018-04-12T06:31:26.304Z,14.07
2018-04-12T06:32:26.230Z,14.20
2018-04-12T06:33:26.155Z,14.27
2018-04-12T06:34:26.081Z,14.16
2018-04-12T06:35:26.007Z,14.20
2018-04-12T06:36:25.934Z,14.24
2018-04-12T06:37:25.859Z,14.27
2018-04-12T06:38:25.786Z,14.21
2018-04-12T06:39:25.711Z,14.34
2018-04-12T06:40:25.639Z,14.36
2018-04-12T06:41:25.564Z,14.46
2018-04-12T06:42:25.491Z,14.57
2018-04-12T06:43:25.421Z,14.69
2018-04-12T06:44:25.347Z,14.69
2018-04-12T06:45:25.270Z,14.87
2018-04-12T06:46:25.196Z,14.94
2018-04-12T06:47:25.125Z,14.94
2018-04-12T06:48:25.050Z,15.02
2018-04-12T06:49:24.975Z,15.16
2018-04-12T06:50:24.905Z,15.16
2018-04-12T06:51:24.830Z,15.27
2018-04-12T06:52:24.759Z,15.34
2018-04-12T06:53:24.687Z,15.39
2018-04-12T06:54:24.613Z,15.43
2018-04-12T06:55:24.536Z,15.43
2018-04-12T06:56:24.465Z,15.42
2018-04-12T06:57:24.389Z,15.51
2018-04-12T06:58:24.317Z,15.53
2018-04-12T06:59:24.244Z,15.60
2018-04-12T07:00:24.171Z,15.66
2018-04-12T07:01:24.098Z,15.66
2018-04-12T07:02:24.026Z,15.85
2018-04-12T07:03:23.954Z,15.88
2018-04-12T07:04:23.879Z,15.86
2018-04-12T07:05:23.805Z,15.99
2018-04-12T07:06:23.734Z,15.92
2018-04-12T07:07:23.663Z,16.07
2018-04-12T07:08:23.588Z,16.12
2018-04-12T07:09:23.515Z,16.10
2018-04-12T07:10:23.444Z,16.08
2018-04-12T07:11:23.372Z,16.15
2018-04-12T07:12:23.339Z,16.14
2018-04-12T07:13:23.225Z,16.18
2018-04-12T07:14:23.156Z,16.20
2018-04-12T07:15:23.081Z,16.33
2018-04-12T07:16:23.015Z,16.35
2018-04-12T07:17:22.935Z,16.33
2018-04-12T07:18:22.864Z,16.30
2018-04-12T07:19:22.792Z,16.29
2018-04-12T07:20:22.722Z,16.29
2018-04-12T07:21:22.647Z,16.33
2018-04-12T07:22:22.575Z,16.34
2018-04-12T07:23:22.503Z,16.34
2018-04-12T07:24:22.432Z,16.30
2018-04-12T07:25:22.360Z,16.41
2018-04-12T07:26:22.285Z,16.44
2018-04-12T07:27:22.218Z,16.60
2018-04-12T07:28:22.149Z,16.60
2018-04-12T07:29:22.072Z,16.71
2018-04-12T07:30:21.999Z,16.65
2018-04-12T07:31:21.927Z,16.82
2018-04-12T07:32:21.855Z,16.81
2018-04-12T07:33:21.782Z,16.77
2018-04-12T07:34:21.713Z,16.89
2018-04-12T07:35:21.641Z,16.95
2018-04-12T07:36:21.568Z,17.05
2018-04-12T07:37:21.497Z,17.07
2018-04-12T07:38:21.426Z,17.13
2018-04-12T07:39:21.354Z,17.15
2018-04-12T07:40:21.283Z,17.11
2018-04-12T07:41:21.212Z,17.08
2018-04-12T07:42:21.139Z,17.11
2018-04-12T07:43:21.067Z,17.14
2018-04-12T07:44:20.995Z,17.07
2018-04-12T07:45:20.925Z,17.21
2018-04-12T07:46:20.852Z,17.21
2018-04-12T07:47:20.782Z,17.05
2018-04-12T07:48:20.709Z,17.17
2018-04-12T07:49:20.671Z,17.18
2018-04-12T07:50:20.567Z,17.33
2018-04-12T07:51:20.495Z,17.32
2018-04-12T07:52:20.424Z,17.23
2018-04-12T07:53:20.352Z,17.17
2018-04-12T07:54:20.281Z,17.21
2018-04-12T07:55:20.210Z,17.21
2018-04-12T07:56:20.138Z,17.32
2018-04-12T07:57:20.068Z,17.28
2018-04-12T07:58:19.995Z,17.29
2018-04-12T07:59:19.924Z,17.29
2018-04-12T08:00:19.853Z,17.35
2018-04-12T08:01:19.780Z,17.44
2018-04-12T08:02:19.709Z,17.50
2018-04-12T08:03:19.639Z,17.50
2018-04-12T08:04:19.567Z,17.63
2018-04-12T08:05:19.496Z,17.70
2018-04-12T08:06:19.424Z,17.63
2018-04-12T08:07:19.353Z,17.71
2018-04-12T08:08:19.281Z,17.63
2018-04-12T08:09:19.211Z,17.57
2018-04-12T08:10:19.139Z,17.55
2018-04-12T08:11:19.069Z,17.60
2018-04-12T08:12:18.999Z,17.66
2018-04-12T08:13:18.925Z,17.70
2018-04-12T08:14:18.855Z,17.74
2018-04-12T08:15:18.784Z,17.76
2018-04-12T08:16:18.845Z,17.88
2018-04-12T08:17:18.641Z,17.98
2018-04-12T08:18:18.570Z,18.00
2018-04-12T08:19:18.499Z,18.00
2018-04-12T08:20:18.429Z,17.96
2018-04-12T08:21:18.357Z,17.96
2018-04-12T08:22:18.286Z,17.94
2018-04-12T08:23:18.216Z,18.00
2018-04-12T08:24:18.147Z,18.00
2018-04-12T08:25:18.074Z,18.06
2018-04-12T08:26:18.003Z,18.06
2018-04-12T08:27:17.933Z,18.16
2018-04-12T08:28:17.862Z,18.21
2018-04-12T08:29:17.791Z,18.18
2018-04-12T08:30:17.720Z,18.32
2018-04-12T08:31:17.650Z,18.29
2018-04-12T08:32:17.578Z,18.31
2018-04-12T08:33:17.507Z,18.35
2018-04-12T08:34:17.438Z,18.32
2018-04-12T08:35:17.370Z,18.25
2018-04-12T08:36:17.295Z,18.43
2018-04-12T08:37:17.224Z,18.44
2018-04-12T08:38:17.155Z,18.55
2018-04-12T08:39:17.083Z,18.57
2018-04-12T08:40:17.016Z,18.59
2018-04-12T08:41:16.942Z,18.50
2018-04-12T08:42:16.872Z,18.47
2018-04-12T08:43:16.802Z,18.52
2018-04-12T08:44:16.731Z,18.42
2018-04-12T08:45:16.658Z,18.42
2018-04-12T08:46:16.592Z,18.49
2018-04-12T08:47:16.518Z,18.52
2018-04-12T08:48:16.448Z,18.69
2018-04-12T08:49:16.376Z,18.67
2018-04-12T08:50:16.306Z,18.77
2018-04-12T08:51:16.235Z,18.77
2018-04-12T08:52:16.165Z,18.87
2018-04-12T08:53:16.096Z,18.89
2018-04-12T08:54:16.024Z,18.97
2018-04-12T08:55:15.952Z,19.05
2018-04-12T08:56:15.884Z,18.97
2018-04-12T08:57:15.817Z,19.01
2018-04-12T08:58:15.745Z,19.11
2018-04-12T08:59:15.670Z,19.11
2018-04-12T09:00:15.599Z,19.23
2018-04-12T09:01:15.530Z,19.18
2018-04-12T09:02:15.457Z,19.18
2018-04-12T09:03:15.387Z,19.25
2018-04-12T09:04:15.317Z,19.36
2018-04-12T09:05:15.245Z,19.36
2018-04-12T09:06:15.175Z,19.38
2018-04-12T09:07:15.105Z,19.46
2018-04-12T09:08:15.035Z,19.45
2018-04-12T09:09:14.964Z,19.43
2018-04-12T09:10:14.894Z,19.48
2018-04-12T09:11:14.822Z,19.54
2018-04-12T09:12:14.758Z,19.61
2018-04-12T09:13:14.682Z,19.64
2018-04-12T09:14:14.611Z,19.53
2018-04-12T09:15:14.541Z,19.68
2018-04-12T09:16:14.469Z,19.71
2018-04-12T09:17:14.400Z,19.61
2018-04-12T09:18:14.329Z,19.61
2018-04-12T09:19:14.259Z,19.71
2018-04-12T09:20:14.216Z,19.72
2018-04-12T09:21:14.122Z,19.76
2018-04-12T09:22:14.049Z,19.76
2018-04-12T09:23:13.981Z,19.71
2018-04-12T09:24:13.909Z,19.64
2018-04-12T09:25:13.838Z,19.69
2018-04-12T09:26:13.768Z,19.64
2018-04-12T09:27:13.699Z,19.78
2018-04-12T09:28:13.629Z,19.80
2018-04-12T09:29:13.559Z,19.72
2018-04-12T09:30:13.492Z,19.64
2018-04-12T09:31:13.419Z,19.64
2018-04-12T09:32:13.350Z,19.68
2018-04-12T09:33:13.281Z,19.72
2018-04-12T09:34:13.209Z,19.69
2018-04-12T09:35:13.139Z,19.68
2018-04-12T09:36:13.071Z,19.73
2018-04-12T09:37:13.000Z,19.78
2018-04-12T09:38:12.931Z,19.69
2018-04-12T09:39:12.861Z,19.63
2018-04-12T09:40:12.792Z,19.64
2018-04-12T09:41:12.731Z,19.60
2018-04-12T09:42:12.652Z,19.51
2018-04-12T09:43:12.583Z,19.55
2018-04-12T09:44:12.514Z,19.61
2018-04-12T09:45:12.444Z,19.68
2018-04-12T09:46:12.375Z,19.71
2018-04-12T09:47:12.306Z,19.71
2018-04-12T09:48:12.235Z,19.73
2018-04-12T09:49:12.172Z,19.78
2018-04-12T09:50:12.097Z,19.71
2018-04-12T09:51:12.027Z,19.88
2018-04-12T09:52:11.963Z,19.93
2018-04-12T09:53:11.888Z,19.94
2018-04-12T09:54:11.819Z,20.03
2018-04-12T09:55:11.750Z,19.90
2018-04-12T09:56:11.683Z,19.90
2018-04-12T09:57:11.610Z,19.91
2018-04-12T09:58:11.541Z,19.94
2018-04-12T09:59:11.472Z,19.87
2018-04-12T10:00:11.405Z,19.87
2018-04-12T10:01:11.334Z,20.01
2018-04-12T10:02:11.265Z,20.08
2018-04-12T10:03:11.196Z,20.12
2018-04-12T10:04:11.127Z,20.12
2018-04-12T10:05:11.057Z,20.01
2018-04-12T10:06:10.988Z,20.09
2018-04-12T10:07:10.921Z,20.12
2018-04-12T10:08:10.851Z,20.09
2018-04-12T10:09:10.781Z,20.15
2018-04-12T10:10:10.712Z,20.19
2018-04-12T10:11:10.645Z,20.28
2018-04-12T10:12:10.576Z,20.24
2018-04-12T10:13:10.505Z,20.34
2018-04-12T10:14:10.437Z,20.40
2018-04-12T10:15:10.404Z,20.49
2018-04-12T10:16:10.299Z,20.53
2018-04-12T10:17:10.230Z,20.59
2018-04-12T10:18:10.163Z,20.57
2018-04-12T10:19:10.092Z,20.61
2018-04-12T10:20:10.024Z,20.66
2018-04-12T10:21:09.955Z,20.69
2018-04-12T10:22:09.886Z,20.82
2018-04-12T10:23:09.819Z,20.87
2018-04-12T10:24:09.752Z,20.90
2018-04-12T10:25:09.681Z,20.96
2018-04-12T10:26:09.613Z,20.99
2018-04-12T10:27:09.545Z,20.91
2018-04-12T10:28:09.477Z,21.11
2018-04-12T10:29:09.408Z,21.09
2018-04-12T10:30:09.340Z,21.11
2018-04-12T10:31:09.271Z,20.94
2018-04-12T10:32:09.205Z,20.87
2018-04-12T10:33:09.136Z,20.82
2018-04-12T10:34:09.068Z,20.86
2018-04-12T10:35:09.003Z,20.80
2018-04-12T10:36:08.933Z,20.76
2018-04-12T10:37:08.869Z,20.84
2018-04-12T10:38:08.795Z,20.91
2018-04-12T10:39:08.731Z,20.87
2018-04-12T10:40:08.658Z,20.76
2018-04-12T10:41:08.593Z,20.90
2018-04-12T10:42:08.525Z,21.04
2018-04-12T10:43:08.456Z,21.06
2018-04-12T10:44:08.388Z,21.01
2018-04-12T10:45:08.318Z,20.91
2018-04-12T10:46:08.257Z,21.19
2018-04-12T10:47:08.187Z,21.14
2018-04-12T10:48:08.117Z,21.56
2018-04-12T10:49:08.049Z,21.70
2018-04-12T10:50:07.984Z,21.89
2018-04-12T10:51:07.913Z,22.31
2018-04-12T10:52:07.846Z,22.50
2018-04-12T10:53:07.778Z,22.34
2018-04-12T10:54:07.714Z,22.10
2018-04-12T10:55:07.644Z,22.30
2018-04-12T10:56:07.576Z,22.53
2018-04-12T10:57:07.510Z,22.44
2018-04-12T10:58:07.442Z,22.67
2018-04-12T10:59:07.377Z,22.71
2018-04-12T11:00:07.309Z,22.65
2018-04-12T11:01:07.241Z,22.53
2018-04-12T11:02:07.178Z,22.28
2018-04-12T11:03:07.110Z,22.00
2018-04-12T11:04:07.044Z,21.75
2018-04-12T11:05:06.976Z,21.74
2018-04-12T11:06:06.910Z,21.36
2018-04-12T11:07:06.844Z,21.57
2018-04-12T11:08:06.778Z,21.84
2018-04-12T11:09:06.711Z,21.89
2018-04-12T11:10:06.649Z,21.91
2018-04-12T11:11:06.578Z,21.97
2018-04-12T11:12:06.512Z,22.30
2018-04-12T11:13:06.445Z,22.74
2018-04-12T11:14:06.378Z,23.05
2018-04-12T11:15:06.312Z,23.22
2018-04-12T11:16:06.247Z,23.56
2018-04-12T11:17:06.179Z,23.58
2018-04-12T11:18:06.113Z,23.24
2018-04-12T11:19:06.048Z,23.22
2018-04-12T11:20:05.983Z,23.09
2018-04-12T11:21:05.924Z,22.99
2018-04-12T11:22:05.850Z,23.02
2018-04-12T11:23:05.785Z,23.24
2018-04-12T11:24:05.719Z,23.46
2018-04-12T11:25:05.654Z,23.18
2018-04-12T11:26:05.591Z,23.05
2018-04-12T11:27:05.581Z,23.38
2018-04-12T11:28:05.458Z,23.80
2018-04-12T11:29:05.391Z,23.83
2018-04-12T11:30:05.345Z,23.85
2018-04-12T11:31:05.262Z,24.04
2018-04-12T11:32:05.197Z,24.71
2018-04-12T11:33:05.157Z,25.30
2018-04-12T11:34:05.096Z,25.60
2018-04-12T11:35:05.063Z,25.41
2018-04-12T11:36:04.947Z,25.35
2018-04-12T11:37:04.879Z,25.47
2018-04-12T11:38:04.814Z,25.62
2018-04-12T11:39:04.752Z,25.34
2018-04-12T11:40:04.690Z,25.72
2018-04-12T11:41:04.627Z,26.07
2018-04-12T11:42:04.563Z,25.64
2018-04-12T11:43:04.504Z,24.56
2018-04-12T11:44:04.442Z,24.88
2018-04-12T11:45:04.381Z,25.01
2018-04-12T11:46:04.319Z,26.04
2018-04-12T11:47:04.259Z,26.98
2018-04-12T11:48:04.203Z,27.60
2018-04-12T11:49:04.174Z,27.84
2018-04-12T11:50:04.079Z,26.98
2018-04-12T11:51:04.019Z,26.53
2018-04-12T11:52:03.970Z,25.59
2018-04-12T11:53:03.902Z,25.08
2018-04-12T11:54:03.846Z,25.00
2018-04-12T11:55:03.818Z,25.35
2018-04-12T11:56:03.741Z,26.01
2018-04-12T11:57:03.665Z,26.02
2018-04-12T11:58:03.607Z,25.75
2018-04-12T11:59:03.548Z,25.60
2018-04-12T12:00:03.490Z,26.12
2018-04-12T12:01:03.431Z,26.11
2018-04-12T12:02:03.372Z,24.54
2018-04-12T12:03:03.313Z,24.41
2018-04-12T12:04:03.256Z,24.26
2018-04-12T12:05:03.195Z,24.30
2018-04-12T12:06:03.137Z,24.01
2018-04-12T12:07:03.080Z,24.12
2018-04-12T12:08:03.021Z,23.97
2018-04-12T12:09:02.960Z,24.35
2018-04-12T12:10:02.901Z,24.17
2018-04-12T12:11:02.840Z,25.17
2018-04-12T12:12:02.784Z,25.15
2018-04-12T12:13:02.723Z,25.08
2018-04-12T12:14:02.663Z,24.75
2018-04-12T12:15:02.604Z,24.78
2018-04-12T12:16:02.544Z,24.73
2018-04-12T12:17:02.483Z,24.29
2018-04-12T12:18:02.424Z,24.04
2018-04-12T12:19:02.365Z,23.58
2018-04-12T12:20:02.307Z,22.68
2018-04-12T12:21:02.244Z,22.74
2018-04-12T12:22:02.184Z,22.77
2018-04-12T12:23:02.128Z,23.23
2018-04-12T12:24:02.067Z,23.58
2018-04-12T12:25:01.999Z,23.85
2018-04-12T12:26:01.939Z,23.70
2018-04-12T12:27:01.878Z,23.18
2018-04-12T12:28:01.817Z,23.14
2018-04-12T12:29:01.753Z,23.23
2018-04-12T12:30:01.692Z,22.94
2018-04-12T12:31:01.631Z,22.83
2018-04-12T12:32:01.568Z,23.26
2018-04-12T12:33:01.504Z,23.29
2018-04-12T12:34:01.442Z,23.46
2018-04-12T12:35:01.380Z,23.12
2018-04-12T12:36:01.319Z,23.08
2018-04-12T12:37:01.254Z,23.05
2018-04-12T12:38:01.193Z,22.53
2018-04-12T12:39:01.127Z,22.00
2018-04-12T12:40:01.065Z,21.85
2018-04-12T12:41:01.002Z,21.89
2018-04-12T12:42:00.938Z,21.79
2018-04-12T12:43:00.874Z,21.42
2018-04-12T12:44:00.811Z,21.05
2018-04-12T12:45:00.747Z,20.87
2018-04-12T12:46:00.682Z,20.93
2018-04-12T12:47:00.616Z,21.02
2018-04-12T12:48:00.553Z,21.09
2018-04-12T12:49:00.487Z,21.23
2018-04-12T12:50:00.422Z,21.33
2018-04-12T12:51:00.357Z,21.38
2018-04-12T12:52:00.293Z,21.45
2018-04-12T12:53:00.227Z,21.46
2018-04-12T12:54:00.160Z,21.41
2018-04-12T12:55:00.094Z,21.42
2018-04-12T12:56:00.093Z,21.39
2018-04-12T12:56:59.963Z,21.39
2018-04-12T12:57:59.897Z,21.36
2018-04-12T12:58:59.831Z,21.16
2018-04-12T12:59:59.766Z,21.01
2018-04-12T13:00:59.700Z,20.98
2018-04-12T13:01:59.634Z,21.06
2018-04-12T13:02:59.574Z,20.94